Adolph, Minnesota
Current Conditions -  °F | °C
As of 3:55 AM on Friday 24 Oct 2014 (Local Time) from KDLH Reporting Station
Haze Haze  
Wind Chill: 43°   Ceiling: Unl
Heat Index: 48°   Visibility: 4mi
Dew Point: 45°   Wind: 12mph
Humidity: 89%   Direction: 220°SW
Pressure: 29.9"   Gusts: NA
Location:  46.78°N, 92.28°W
Report Text: KDLH 240855Z 22010KT 4SM BR FEW004 09/07 A2990 RMK AO2 SLP133 T00890072 56006
Loading
Personal Weather Stations






























Interactive Weather Map
Tropical Storm Tracking
New forecast layout! Learn more

10-Day Weather Forecast

Advertisements
Track Severe Weather on mobile